createdAt,value
2023-04-04T00:00:13.541Z,72.723389
2023-04-04T00:01:23.208Z,72.857666
2023-04-04T00:02:31.917Z,72.827148
2023-04-04T00:03:40.731Z,72.827148
2023-04-04T00:04:49.170Z,73.168945
2023-04-04T00:05:58.849Z,73.138428
2023-04-04T00:07:07.511Z,72.930908
2023-04-04T00:08:16.168Z,72.827148
2023-04-04T00:09:25.843Z,72.619629
2023-04-04T00:10:34.519Z,72.509766
2023-04-04T00:11:44.211Z,72.827148
2023-04-04T00:12:53.843Z,72.302246
2023-04-04T00:14:02.509Z,72.723389
2023-04-04T00:15:12.178Z,72.619629
2023-04-04T00:16:21.872Z,72.546387
2023-04-04T00:17:30.505Z,72.753906
2023-04-04T00:18:39.162Z,72.961426
2023-04-04T00:19:47.811Z,73.034668
2023-04-04T00:20:56.486Z,73.168945
2023-04-04T00:22:05.252Z,72.961426
2023-04-04T00:23:13.928Z,72.442627
2023-04-04T00:24:23.597Z,72.546387
2023-04-04T00:25:33.255Z,73.065186
2023-04-04T00:26:40.986Z,72.961426
2023-04-04T00:27:50.670Z,72.857666
2023-04-04T00:29:00.293Z,72.753906
2023-04-04T00:30:08.965Z,72.857666
2023-04-04T00:31:18.673Z,73.797607
2023-04-04T00:32:27.351Z,74.108887
2023-04-04T00:33:36.957Z,73.797607
2023-04-04T00:34:45.610Z,73.382568
2023-04-04T00:35:54.301Z,73.309326
2023-04-04T00:37:04.966Z,72.998047
2023-04-04T00:38:14.617Z,73.101807
2023-04-04T00:39:23.276Z,73.382568
2023-04-04T00:40:31.942Z,73.413086
2023-04-04T00:41:40.636Z,73.168945
2023-04-04T00:42:50.324Z,73.486328
2023-04-04T00:43:58.024Z,73.693848
2023-04-04T00:45:05.672Z,73.724365
2023-04-04T00:46:15.439Z,73.413086
2023-04-04T00:47:25.078Z,73.516846
2023-04-04T00:48:33.670Z,73.205566
2023-04-04T00:49:42.389Z,73.516846
2023-04-04T00:50:52.105Z,73.413086
2023-04-04T00:52:01.838Z,73.413086
2023-04-04T00:53:09.582Z,73.724365
2023-04-04T00:54:18.286Z,73.620605
2023-04-04T00:55:27.997Z,74.353027
2023-04-04T00:56:36.654Z,74.176025
2023-04-04T00:57:46.337Z,74.072266
2023-04-04T00:58:56.102Z,74.176025
2023-04-04T01:00:03.715Z,74.176025
2023-04-04T01:01:11.420Z,74.487305
2023-04-04T01:02:21.095Z,74.597168
2023-04-04T01:03:29.759Z,74.700928
2023-04-04T01:04:38.534Z,74.835205
2023-04-04T01:05:47.164Z,75.048828
2023-04-04T01:06:55.830Z,74.835205
2023-04-04T01:08:05.516Z,75.152588
2023-04-04T01:09:13.208Z,75.463867
2023-04-04T01:10:20.880Z,75.567627
2023-04-04T01:11:30.613Z,75.878906
2023-04-04T01:12:39.302Z,76.092529
2023-04-04T01:13:49.034Z,75.775146
2023-04-04T01:14:57.717Z,75.500488
2023-04-04T01:16:07.559Z,75.604248
2023-04-04T01:17:17.190Z,75.671387
2023-04-04T01:18:25.893Z,76.300049
2023-04-04T01:19:35.629Z,76.196289
2023-04-04T01:20:45.326Z,75.604248
2023-04-04T01:21:54.013Z,75.500488
2023-04-04T01:23:03.738Z,76.019287
2023-04-04T01:24:13.379Z,76.330566
2023-04-04T01:25:22.044Z,76.544189
2023-04-04T01:26:30.695Z,76.123047
2023-04-04T01:27:39.392Z,76.123047
2023-04-04T01:28:47.155Z,76.647949
2023-04-04T01:29:56.796Z,76.751709
2023-04-04T01:31:05.507Z,77.062988
2023-04-04T01:32:15.197Z,77.270508
2023-04-04T01:33:24.892Z,76.751709
2023-04-04T01:34:33.599Z,77.062988
2023-04-04T01:35:43.267Z,76.959229
2023-04-04T01:36:51.917Z,77.099609
2023-04-04T01:38:00.644Z,77.624512
2023-04-04T01:39:10.349Z,76.89209
2023-04-04T01:40:19.002Z,76.89209
2023-04-04T01:41:27.666Z,77.410889
2023-04-04T01:42:37.348Z,77.624512
2023-04-04T01:43:47.021Z,77.514648
2023-04-04T01:44:56.740Z,77.728271
2023-04-04T01:46:05.568Z,78.283691
2023-04-04T01:47:14.234Z,78.387451
2023-04-04T01:48:23.975Z,78.076172
2023-04-04T01:49:32.653Z,78.076172
2023-04-04T01:50:41.530Z,78.179932
2023-04-04T01:51:49.972Z,77.972412
2023-04-04T01:52:59.750Z,78.179932
2023-04-04T01:54:08.406Z,77.868652
2023-04-04T01:55:18.053Z,78.179932
2023-04-04T01:56:25.740Z,78.283691
2023-04-04T01:57:35.457Z,78.387451
2023-04-04T01:58:44.202Z,78.387451
2023-04-04T01:59:52.789Z,78.387451
2023-04-04T02:01:01.503Z,78.320312
2023-04-04T02:02:10.176Z,78.601074
2023-04-04T02:03:19.901Z,78.320312
2023-04-04T02:04:28.629Z,78.948975
2023-04-04T02:05:36.219Z,79.260254
2023-04-04T02:06:45.931Z,79.052734
2023-04-04T02:07:55.644Z,79.052734
2023-04-04T02:09:05.376Z,79.364014
2023-04-04T02:10:14.071Z,79.052734
2023-04-04T02:11:21.714Z,79.156494
2023-04-04T02:12:31.413Z,79.052734
2023-04-04T02:13:40.097Z,79.193115
2023-04-04T02:14:47.748Z,79.925537
2023-04-04T02:15:57.485Z,79.821777
2023-04-04T02:17:06.123Z,80.029297
2023-04-04T02:18:14.829Z,79.925537
2023-04-04T02:19:23.504Z,79.925537
2023-04-04T02:20:33.184Z,79.614258
2023-04-04T02:21:42.836Z,80.487061
2023-04-04T02:22:50.557Z,81.115723
2023-04-04T02:23:59.279Z,80.865479
2023-04-04T02:25:08.920Z,80.657959
2023-04-04T02:26:18.612Z,80.59082
2023-04-04T02:27:27.275Z,80.554199
2023-04-04T02:28:35.988Z,80.657959
2023-04-04T02:29:44.637Z,80.79834
2023-04-04T02:30:54.557Z,80.9021
2023-04-04T02:32:04.249Z,81.219482
2023-04-04T02:33:11.920Z,81.115723
2023-04-04T02:34:21.529Z,81.115723
2023-04-04T02:35:31.199Z,80.79834
2023-04-04T02:36:40.952Z,81.219482
2023-04-04T02:37:50.617Z,81.427002
2023-04-04T02:39:00.335Z,81.427002
2023-04-04T02:40:10.003Z,81.634521
2023-04-04T02:41:19.685Z,81.530762
2023-04-04T02:42:28.346Z,81.848145
2023-04-04T02:43:38.032Z,81.951904
2023-04-04T02:44:46.794Z,81.848145
2023-04-04T02:45:55.447Z,81.738281
2023-04-04T02:47:06.095Z,81.781006
2023-04-04T02:48:15.792Z,81.988525
2023-04-04T02:49:25.514Z,82.092285
2023-04-04T02:50:34.195Z,82.617188
2023-04-04T02:51:42.843Z,82.720947
2023-04-04T02:52:52.600Z,81.988525
2023-04-04T02:54:03.219Z,81.781006
2023-04-04T02:55:11.970Z,82.092285
2023-04-04T02:56:21.753Z,82.299805
2023-04-04T02:57:30.555Z,82.824707
2023-04-04T02:58:39.177Z,82.617188
2023-04-04T02:59:48.222Z,82.513428
2023-04-04T03:00:56.926Z,82.617188
2023-04-04T03:02:06.674Z,82.824707
2023-04-04T03:03:16.511Z,82.824707
2023-04-04T03:04:26.044Z,82.720947
2023-04-04T03:05:35.758Z,82.513428
2023-04-04T03:06:45.405Z,82.092285
2023-04-04T03:07:54.106Z,82.513428
2023-04-04T03:09:03.952Z,83.24585
2023-04-04T03:10:12.628Z,83.349609
2023-04-04T03:11:22.289Z,83.178711
2023-04-04T03:12:31.948Z,83.14209
2023-04-04T03:13:40.616Z,83.349609
2023-04-04T03:14:49.270Z,83.14209
2023-04-04T03:15:57.994Z,83.178711
2023-04-04T03:17:05.646Z,83.14209
2023-04-04T03:18:15.339Z,83.074951
2023-04-04T03:19:22.967Z,83.59375
2023-04-04T03:20:32.641Z,83.911133
2023-04-04T03:21:41.320Z,83.807373
2023-04-04T03:22:50.038Z,83.807373
2023-04-04T03:23:58.743Z,83.703613
2023-04-04T03:25:08.638Z,83.703613
2023-04-04T03:26:17.069Z,83.911133
2023-04-04T03:27:26.733Z,84.222412
2023-04-04T03:28:36.413Z,84.643555
2023-04-04T03:29:45.062Z,84.222412
2023-04-04T03:30:53.697Z,84.014893
2023-04-04T03:32:02.454Z,84.014893
2023-04-04T03:33:12.165Z,84.222412
2023-04-04T03:34:20.840Z,84.051514
2023-04-04T03:35:29.496Z,84.265137
2023-04-04T03:36:39.131Z,84.472656
2023-04-04T03:37:47.882Z,84.680176
2023-04-04T03:38:56.496Z,84.790039
2023-04-04T03:40:06.160Z,84.790039
2023-04-04T03:41:15.877Z,84.576416
2023-04-04T03:42:25.494Z,84.472656
2023-04-04T03:43:33.164Z,84.576416
2023-04-04T03:44:40.797Z,84.893799
2023-04-04T03:45:50.543Z,84.997559
2023-04-04T03:46:59.178Z,84.997559
2023-04-04T03:48:08.909Z,85.205078
2023-04-04T03:49:17.612Z,84.997559
2023-04-04T03:50:27.268Z,84.680176
2023-04-04T03:51:34.937Z,85.101318
2023-04-04T03:52:44.607Z,85.308838
2023-04-04T03:53:54.380Z,85.101318
2023-04-04T03:55:03.027Z,85.205078
2023-04-04T03:56:11.687Z,85.205078
2023-04-04T03:57:20.398Z,85.101318
2023-04-04T03:58:29.081Z,84.82666
2023-04-04T03:59:38.706Z,84.7229
2023-04-04T04:00:47.469Z,84.509277
2023-04-04T04:01:57.153Z,84.405518
2023-04-04T04:03:06.887Z,84.759521
2023-04-04T04:04:16.568Z,85.284424
2023-04-04T04:05:25.212Z,85.388184
2023-04-04T04:06:33.885Z,85.601807
2023-04-04T04:07:42.569Z,86.230469
2023-04-04T04:08:52.260Z,86.541748
2023-04-04T04:10:00.916Z,86.755371
2023-04-04T04:11:08.722Z,86.645508
2023-04-04T04:12:18.462Z,86.230469
2023-04-04T04:13:28.210Z,86.016846
2023-04-04T04:14:36.907Z,85.809326
2023-04-04T04:15:45.679Z,85.809326
2023-04-04T04:16:54.242Z,85.491943
2023-04-04T04:18:04.009Z,85.424805
2023-04-04T04:19:12.665Z,86.26709
2023-04-04T04:20:21.433Z,86.791992
2023-04-04T04:21:31.167Z,87.109375
2023-04-04T04:22:39.830Z,86.999512
2023-04-04T04:23:48.495Z,86.895752
2023-04-04T04:24:57.200Z,87.109375
2023-04-04T04:26:05.964Z,86.895752
2023-04-04T04:27:15.912Z,87.213135
2023-04-04T04:28:23.591Z,87.213135
2023-04-04T04:29:34.328Z,87.634277
2023-04-04T04:30:44.018Z,87.524414
2023-04-04T04:31:53.802Z,87.420654
2023-04-04T04:33:02.434Z,87.463379
2023-04-04T04:34:10.161Z,87.463379
2023-04-04T04:35:18.831Z,87.884521
2023-04-04T04:36:28.669Z,87.884521
2023-04-04T04:37:37.317Z,88.299561
2023-04-04T04:38:46.095Z,88.513184
2023-04-04T04:39:55.913Z,88.409424
2023-04-04T04:41:04.697Z,88.092041
2023-04-04T04:42:13.364Z,88.195801
2023-04-04T04:43:23.102Z,88.409424
2023-04-04T04:44:32.793Z,88.409424
2023-04-04T04:45:42.511Z,88.574219
2023-04-04T04:46:52.233Z,88.470459
2023-04-04T04:48:00.890Z,88.262939
2023-04-04T04:49:10.491Z,87.841797
2023-04-04T04:50:20.231Z,87.841797
2023-04-04T04:51:29.948Z,87.841797
2023-04-04T04:52:39.674Z,87.420654
2023-04-04T04:53:49.513Z,87.213135
2023-04-04T04:54:57.262Z,87.524414
2023-04-04T04:56:07.022Z,87.945557
2023-04-04T04:57:15.687Z,87.945557
2023-04-04T04:58:25.419Z,87.841797
2023-04-04T04:59:33.976Z,87.634277
2023-04-04T05:00:43.702Z,87.524414
2023-04-04T05:01:53.333Z,87.524414
2023-04-04T05:03:02.989Z,87.524414
2023-04-04T05:04:11.616Z,87.738037
2023-04-04T05:05:20.511Z,88.049316
2023-04-04T05:06:30.139Z,87.738037
2023-04-04T05:07:38.779Z,87.634277
2023-04-04T05:08:47.429Z,87.384033
2023-04-04T05:09:56.110Z,87.17041
2023-04-04T05:11:05.868Z,86.962891
2023-04-04T05:12:14.438Z,86.962891
2023-04-04T05:13:22.119Z,86.962891
2023-04-04T05:14:31.822Z,86.895752
2023-04-04T05:15:40.461Z,86.999512
2023-04-04T05:16:50.199Z,89.16626
2023-04-04T05:17:59.805Z,90.17334
2023-04-04T05:19:08.463Z,91.766357
2023-04-04T05:20:18.141Z,91.833496
2023-04-04T05:21:26.793Z,90.155029
2023-04-04T05:22:35.436Z,88.372803
2023-04-04T05:23:44.099Z,87.329102
2023-04-04T05:24:52.781Z,86.004639
2023-04-04T05:26:02.420Z,85.479736
2023-04-04T05:27:11.074Z,85.272217
2023-04-04T05:28:19.721Z,84.960938
2023-04-04T05:29:29.375Z,84.539795
2023-04-04T05:30:38.260Z,84.436035
2023-04-04T05:31:45.738Z,84.539795
2023-04-04T05:32:55.511Z,84.643555
2023-04-04T05:34:04.127Z,84.436035
2023-04-04T05:35:12.823Z,84.539795
2023-04-04T05:36:22.478Z,84.436035
2023-04-04T05:37:33.666Z,84.332275
2023-04-04T05:38:41.733Z,83.807373
2023-04-04T05:39:49.405Z,83.59375
2023-04-04T05:40:58.046Z,83.178711
2023-04-04T05:42:07.751Z,83.032227
2023-04-04T05:43:16.401Z,83.14209
2023-04-04T05:44:25.052Z,82.965088
2023-04-04T05:45:34.720Z,82.824707
2023-04-04T05:46:45.382Z,83.032227
2023-04-04T05:47:55.050Z,83.032227
2023-04-04T05:49:03.659Z,82.824707
2023-04-04T05:50:12.443Z,82.824707
2023-04-04T05:51:22.054Z,82.617188
2023-04-04T05:52:30.699Z,82.299805
2023-04-04T05:53:39.373Z,82.196045
2023-04-04T05:54:48.034Z,82.196045
2023-04-04T05:55:57.710Z,81.951904
2023-04-04T05:57:07.357Z,81.634521
2023-04-04T05:58:14.993Z,81.530762
2023-04-04T05:59:23.696Z,81.634521
2023-04-04T06:00:33.353Z,81.951904
2023-04-04T06:01:41.971Z,81.80542
2023-04-04T06:02:51.690Z,81.80542
2023-04-04T06:04:00.293Z,81.5979
2023-04-04T06:05:09.925Z,81.5979
2023-04-04T06:06:19.716Z,81.70166
2023-04-04T06:07:28.251Z,81.915283
2023-04-04T06:08:50.518Z,81.80542
2023-04-04T06:09:48.588Z,81.45752
2023-04-04T06:10:58.286Z,81.14624
2023-04-04T06:12:06.952Z,81.036377
2023-04-04T06:13:15.610Z,81.036377
2023-04-04T06:14:24.241Z,80.450439
2023-04-04T06:15:33.954Z,80.029297
2023-04-04T06:16:42.591Z,79.925537
2023-04-04T06:17:51.287Z,80.200195
2023-04-04T06:19:00.915Z,80.200195
2023-04-04T06:20:09.605Z,79.785156
2023-04-04T06:21:19.275Z,79.681396
2023-04-04T06:22:27.954Z,79.156494
2023-04-04T06:23:37.603Z,79.327393
2023-04-04T06:24:47.223Z,79.327393
2023-04-04T06:25:54.896Z,79.437256
2023-04-04T06:27:02.549Z,78.912354
2023-04-04T06:28:12.228Z,78.912354
2023-04-04T06:29:20.887Z,78.808594
2023-04-04T06:30:29.536Z,78.143311
2023-04-04T06:31:38.237Z,77.832031
2023-04-04T06:32:46.855Z,77.832031
2023-04-04T06:33:56.480Z,77.935791
2023-04-04T06:35:05.265Z,77.410889
2023-04-04T06:36:13.957Z,77.270508
2023-04-04T06:37:23.581Z,76.470947
2023-04-04T06:38:32.263Z,76.330566
2023-04-04T06:39:40.873Z,76.44043
2023-04-04T06:40:49.570Z,76.44043
2023-04-04T06:41:58.214Z,76.300049
2023-04-04T06:43:07.881Z,75.982666
2023-04-04T06:44:15.537Z,75.848389
2023-04-04T06:45:24.190Z,75.323486
2023-04-04T06:46:33.880Z,74.975586
2023-04-04T06:47:42.526Z,74.145508
2023-04-04T06:48:52.144Z,73.724365
2023-04-04T06:50:01.796Z,73.931885
2023-04-04T06:51:10.627Z,73.590088
2023-04-04T06:52:19.278Z,74.212646
2023-04-04T06:53:28.940Z,73.034668
2023-04-04T06:54:37.600Z,72.619629
2023-04-04T06:55:46.228Z,71.368408
2023-04-04T06:56:55.980Z,70.916748
2023-04-04T06:58:04.648Z,70.501709
2023-04-04T06:59:13.353Z,70.257568
2023-04-04T07:00:21.939Z,70.123291
2023-04-04T07:01:29.687Z,69.989014
2023-04-04T07:02:39.432Z,69.677734
2023-04-04T07:03:47.905Z,67.980957
2023-04-04T07:04:57.566Z,67.63916
2023-04-04T07:06:06.240Z,67.297363
2023-04-04T07:07:15.928Z,66.357422
2023-04-04T07:08:25.584Z,65.216064
2023-04-04T07:09:35.231Z,65.527344
2023-04-04T07:10:44.122Z,65.704346
2023-04-04T07:11:53.555Z,66.821289
2023-04-04T07:13:02.221Z,65.264893
2023-04-04T07:14:10.878Z,65.026855
2023-04-04T07:15:19.539Z,63.677979
2023-04-04T07:16:29.243Z,64.477539
2023-04-04T07:17:37.937Z,64.16626
2023-04-04T07:18:45.537Z,64.447021
2023-04-04T07:19:54.206Z,63.201904
2023-04-04T07:21:03.865Z,62.762451
2023-04-04T07:22:12.513Z,61.621094
2023-04-04T07:23:21.185Z,61.102295
2023-04-04T07:24:29.830Z,60.968018
2023-04-04T07:25:39.494Z,59.936523
2023-04-04T07:26:49.172Z,59.729004
2023-04-04T07:28:05.928Z,59.521484
2023-04-04T07:29:07.445Z,59.082031
2023-04-04T07:30:17.102Z,59.002686
2023-04-04T07:31:26.777Z,59.185791
2023-04-04T07:32:35.456Z,58.978271
2023-04-04T07:33:44.094Z,59.082031
2023-04-04T07:34:53.743Z,58.770752
2023-04-04T07:36:03.410Z,58.691406
2023-04-04T07:37:12.087Z,58.282471
2023-04-04T07:38:19.726Z,59.49707
2023-04-04T07:39:29.474Z,58.251953
2023-04-04T07:40:38.470Z,58.044434
2023-04-04T07:41:46.796Z,58.483887
2023-04-04T07:42:56.471Z,59.393311
2023-04-04T07:44:06.101Z,59.60083
2023-04-04T07:45:15.742Z,59.259033
2023-04-04T07:46:23.572Z,58.093262
2023-04-04T07:47:32.097Z,57.757568
2023-04-04T07:48:41.719Z,57.446289
2023-04-04T07:49:51.446Z,57.629395
2023-04-04T07:51:00.099Z,56.70166
2023-04-04T07:52:08.768Z,56.103516
2023-04-04T07:53:17.432Z,56.335449
2023-04-04T07:54:27.116Z,56.677246
2023-04-04T07:55:35.737Z,56.774902
2023-04-04T07:56:43.450Z,57.061768
2023-04-04T07:57:53.118Z,56.439209
2023-04-04T07:59:01.827Z,56.207275
2023-04-04T08:00:10.386Z,56.518555
2023-04-04T08:01:19.034Z,56.207275
2023-04-04T08:02:27.746Z,56.390381
2023-04-04T08:03:37.484Z,55.79834
2023-04-04T08:04:47.049Z,56.182861
2023-04-04T08:05:55.714Z,55.255127
2023-04-04T08:07:05.372Z,55.664062
2023-04-04T08:08:14.038Z,55.175781
2023-04-04T08:09:23.693Z,56.134033
2023-04-04T08:10:32.351Z,56.439209
2023-04-04T08:11:42.035Z,56.90918
2023-04-04T08:12:51.696Z,56.414795
2023-04-04T08:13:59.346Z,57.269287
2023-04-04T08:15:08.038Z,58.538818
2023-04-04T08:16:17.746Z,58.721924
2023-04-04T08:17:26.337Z,59.344482
2023-04-04T08:18:33.980Z,60.766602
2023-04-04T08:19:42.631Z,57.891846
2023-04-04T08:20:51.298Z,57.788086
2023-04-04T08:22:00.981Z,58.746338
2023-04-04T08:23:09.652Z,59.552002
2023-04-04T08:24:17.279Z,59.057617
2023-04-04T08:25:26.929Z,58.746338
2023-04-04T08:26:35.583Z,59.136963
2023-04-04T08:27:44.227Z,59.289551
2023-04-04T08:28:52.897Z,57.70874
2023-04-04T08:30:02.542Z,55.822754
2023-04-04T08:31:12.242Z,54.193115
2023-04-04T08:32:21.889Z,54.193115
2023-04-04T08:33:44.462Z,54.528809
2023-04-04T08:34:42.175Z,54.656982
2023-04-04T08:35:51.825Z,55.688477
2023-04-04T08:37:00.517Z,55.767822
2023-04-04T08:38:09.187Z,56.182861
2023-04-04T08:39:18.852Z,56.079102
2023-04-04T08:40:28.500Z,55.664062
2023-04-04T08:41:37.135Z,55.664062
2023-04-04T08:42:46.849Z,55.664062
2023-04-04T08:43:55.505Z,55.767822
2023-04-04T08:45:04.399Z,55.847168
2023-04-04T08:46:13.837Z,55.224609
2023-04-04T08:47:22.537Z,55.047607
2023-04-04T08:48:32.223Z,54.241943
2023-04-04T08:49:41.874Z,53.955078
2023-04-04T08:50:50.513Z,54.785156
2023-04-04T08:52:00.255Z,54.290771
2023-04-04T08:53:08.893Z,54.888916
2023-04-04T08:54:17.540Z,53.564453
2023-04-04T08:55:26.193Z,53.253174
2023-04-04T08:56:35.855Z,54.083252
2023-04-04T08:57:45.539Z,53.900146
2023-04-04T08:58:54.256Z,54.290771
2023-04-04T09:00:02.968Z,54.522705
2023-04-04T09:01:12.512Z,54.730225
2023-04-04T09:02:22.228Z,55.224609
2023-04-04T09:03:31.899Z,54.705811
2023-04-04T09:04:41.974Z,55.718994
2023-04-04T09:05:50.152Z,55.407715
2023-04-04T09:06:59.804Z,55.175781
2023-04-04T09:08:09.473Z,54.840088
2023-04-04T09:09:17.120Z,54.321289
2023-04-04T09:10:26.767Z,54.296875
2023-04-04T09:11:35.458Z,54.089355
2023-04-04T09:12:44.150Z,53.546143
2023-04-04T09:13:53.837Z,53.961182
2023-04-04T09:15:03.495Z,53.106689
2023-04-04T09:16:13.157Z,52.46582
2023-04-04T09:17:21.804Z,52.386475
2023-04-04T09:18:30.469Z,51.434326
2023-04-04T09:19:40.174Z,51.306152
2023-04-04T09:20:48.809Z,49.859619
2023-04-04T09:21:57.404Z,50.787354
2023-04-04T09:23:07.076Z,50.787354
2023-04-04T09:24:15.980Z,50.915527
2023-04-04T09:25:23.427Z,51.306152
2023-04-04T09:26:33.067Z,51.696777
2023-04-04T09:27:41.759Z,52.081299
2023-04-04T09:28:50.420Z,51.257324
2023-04-04T09:29:59.071Z,49.835205
2023-04-04T09:31:06.732Z,49.731445
2023-04-04T09:32:16.415Z,49.21875
2023-04-04T09:33:25.071Z,49.627686
2023-04-04T09:34:34.710Z,50.042725
2023-04-04T09:35:43.405Z,49.42627
2023-04-04T09:36:52.011Z,50.354004
2023-04-04T09:38:01.709Z,50.65918
2023-04-04T09:39:11.437Z,50.946045
2023-04-04T09:40:21.103Z,49.401855
2023-04-04T09:41:30.750Z,49.505615
2023-04-04T09:42:40.427Z,48.681641
2023-04-04T09:43:48.083Z,48.779297
2023-04-04T09:44:57.778Z,48.803711
2023-04-04T09:46:06.489Z,49.298096
2023-04-04T09:47:24.260Z,49.609375
2023-04-04T09:48:26.793Z,48.699951
2023-04-04T09:49:36.462Z,49.32251
2023-04-04T09:50:46.142Z,50.22583
2023-04-04T09:51:55.789Z,48.864746
2023-04-04T09:53:04.435Z,50.201416
2023-04-04T09:54:22.354Z,50.097656
2023-04-04T09:55:24.760Z,49.560547
2023-04-04T09:56:34.401Z,49.047852
2023-04-04T09:57:44.056Z,49.743652
2023-04-04T09:59:02.957Z,48.425293
2023-04-04T10:00:04.367Z,48.632812
2023-04-04T10:01:12.059Z,48.553467
2023-04-04T10:02:21.760Z,49.768066
2023-04-04T10:03:31.445Z,49.127197
2023-04-04T10:04:40.150Z,48.815918
2023-04-04T10:05:50.923Z,48.120117
2023-04-04T10:07:00.506Z,48.223877
2023-04-04T10:08:09.148Z,48.138428
2023-04-04T10:09:18.829Z,48.449707
2023-04-04T10:10:26.487Z,48.840332
2023-04-04T10:11:35.130Z,49.066162
2023-04-04T10:12:44.775Z,50.079346
2023-04-04T10:13:53.467Z,49.230957
2023-04-04T10:15:03.151Z,49.847412
2023-04-04T10:16:12.958Z,49.206543
2023-04-04T10:17:22.451Z,48.797607
2023-04-04T10:18:32.093Z,48.510742
2023-04-04T10:19:39.807Z,48.327637
2023-04-04T10:20:48.471Z,48.944092
2023-04-04T10:21:59.149Z,49.615479
2023-04-04T10:23:07.836Z,48.669434
2023-04-04T10:24:16.496Z,47.583008
2023-04-04T10:25:25.231Z,48.895264
2023-04-04T10:26:33.898Z,47.808838
2023-04-04T10:27:43.538Z,48.736572
2023-04-04T10:28:54.227Z,48.614502
2023-04-04T10:30:01.904Z,49.206543
2023-04-04T10:31:11.626Z,48.980713
2023-04-04T10:32:21.260Z,47.845459
2023-04-04T10:33:30.866Z,47.229004
2023-04-04T10:34:39.542Z,47.436523
2023-04-04T10:35:47.237Z,48.052979
2023-04-04T10:36:55.875Z,48.156738
2023-04-04T10:38:04.554Z,47.412109
2023-04-04T10:39:12.223Z,47.619629
2023-04-04T10:40:21.886Z,47.595215
2023-04-04T10:41:30.681Z,46.588135
2023-04-04T10:42:40.340Z,47.723389
2023-04-04T10:43:50.002Z,46.588135
2023-04-04T10:45:06.189Z,46.508789
2023-04-04T10:46:10.305Z,47.30835
2023-04-04T10:47:18.947Z,47.290039
2023-04-04T10:48:26.589Z,46.569824
2023-04-04T10:49:36.424Z,46.014404
2023-04-04T10:50:45.075Z,45.294189
2023-04-04T10:51:56.707Z,46.09375
2023-04-04T10:53:04.482Z,45.6604
2023-04-04T10:54:13.180Z,45.3125
2023-04-04T10:55:22.814Z,44.75708
2023-04-04T10:56:31.488Z,44.63501
2023-04-04T10:57:40.145Z,44.30542
2023-04-04T10:58:49.849Z,45.410156
2023-04-04T10:59:58.486Z,44.061279
2023-04-04T11:01:07.162Z,42.791748
2023-04-04T11:02:15.816Z,41.711426
2023-04-04T11:03:24.460Z,40.826416
2023-04-04T11:04:34.329Z,42.138672
2023-04-04T11:05:43.190Z,43.774414
2023-04-04T11:06:51.523Z,42.956543
2023-04-04T11:08:08.032Z,42.687988
2023-04-04T11:09:11.807Z,42.791748
2023-04-04T11:10:21.522Z,43.200684
2023-04-04T11:11:31.905Z,42.608643
2023-04-04T11:12:40.798Z,42.730713
2023-04-04T11:13:49.456Z,44.122314
2023-04-04T11:14:57.151Z,45.556641
2023-04-04T11:16:06.808Z,44.616699
2023-04-04T11:17:16.466Z,43.096924
2023-04-04T11:18:32.922Z,44.018555
2023-04-04T11:19:36.809Z,44.000244
2023-04-04T11:20:46.454Z,45.599365
2023-04-04T11:21:54.097Z,44.32373
2023-04-04T11:23:02.755Z,42.138672
2023-04-04T11:24:12.482Z,43.939209
2023-04-04T11:25:21.073Z,41.876221
2023-04-04T11:26:30.795Z,40.460205
2023-04-04T11:27:40.454Z,41.485596
2023-04-04T11:28:49.106Z,42.095947
2023-04-04T11:29:58.729Z,41.546631
2023-04-04T11:31:06.389Z,41.345215
2023-04-04T11:32:14.128Z,40.460205
2023-04-04T11:33:24.771Z,41.912842
2023-04-04T11:34:33.420Z,41.827393
2023-04-04T11:35:43.222Z,41.949463
2023-04-04T11:36:51.746Z,42.480469
2023-04-04T11:38:01.430Z,43.322754
2023-04-04T11:39:11.113Z,43.218994
2023-04-04T11:40:19.760Z,42.791748
2023-04-04T11:41:29.431Z,42.871094
2023-04-04T11:42:39.090Z,43.347168
2023-04-04T11:43:47.730Z,42.810059
2023-04-04T11:44:58.426Z,41.772461
2023-04-04T11:46:08.203Z,41.278076
2023-04-04T11:47:17.765Z,42.321777
2023-04-04T11:48:27.448Z,43.035889
2023-04-04T11:49:36.154Z,42.095947
2023-04-04T11:50:46.018Z,42.199707
2023-04-04T11:51:55.633Z,42.059326
2023-04-04T11:53:04.257Z,41.61377
2023-04-04T11:54:12.917Z,40.942383
2023-04-04T11:55:21.617Z,40.29541
2023-04-04T11:56:30.280Z,38.647461
2023-04-04T11:57:39.992Z,38.397217
2023-04-04T11:58:47.787Z,39.63623
2023-04-04T11:59:56.307Z,40.820312
2023-04-04T12:01:06.082Z,38.867188
2023-04-04T12:02:14.661Z,40.496826
2023-04-04T12:03:24.388Z,41.28418
2023-04-04T12:04:35.773Z,41.815186
2023-04-04T12:05:44.097Z,40.527344
2023-04-04T12:06:53.298Z,41.18042
2023-04-04T12:08:01.967Z,41.75415
2023-04-04T12:09:10.613Z,41.326904
2023-04-04T12:10:20.339Z,42.468262
2023-04-04T12:11:28.989Z,42.565918
2023-04-04T12:12:38.655Z,41.485596
2023-04-04T12:13:47.301Z,41.851807
2023-04-04T12:15:06.502Z,40.283203
2023-04-04T12:16:07.670Z,39.72168
2023-04-04T12:17:16.318Z,39.044189
2023-04-04T12:18:24.989Z,39.471436
2023-04-04T12:19:34.673Z,40.100098
2023-04-04T12:20:44.361Z,39.434814
2023-04-04T12:21:54.024Z,37.921143
2023-04-04T12:23:03.698Z,39.849854
2023-04-04T12:24:13.337Z,40.72876
2023-04-04T12:25:23.013Z,39.776611
2023-04-04T12:26:30.668Z,39.819336
2023-04-04T12:27:38.304Z,38.458252
2023-04-04T12:28:47.953Z,39.276123
2023-04-04T12:29:56.657Z,37.542725
2023-04-04T12:31:06.400Z,38.000488
2023-04-04T12:32:15.928Z,38.165283
2023-04-04T12:33:25.600Z,36.627197
2023-04-04T12:34:35.301Z,36.676025
2023-04-04T12:35:44.051Z,36.578369
2023-04-04T12:36:51.583Z,36.151123
2023-04-04T12:38:01.233Z,35.614014
2023-04-04T12:39:10.894Z,35.797119
2023-04-04T12:40:18.558Z,37.683105
2023-04-04T12:41:27.211Z,37.188721
2023-04-04T12:42:36.866Z,38.95874
2023-04-04T12:43:46.509Z,39.007568
2023-04-04T12:44:54.438Z,38.763428
2023-04-04T12:46:02.835Z,37.93335
2023-04-04T12:47:12.538Z,37.017822
2023-04-04T12:48:21.142Z,37.255859
2023-04-04T12:49:29.789Z,38.665771
2023-04-04T12:50:39.511Z,37.768555
2023-04-04T12:51:48.149Z,38.671875
2023-04-04T12:53:08.564Z,39.111328
2023-04-04T12:54:08.449Z,38.037109
2023-04-04T12:55:17.135Z,37.982178
2023-04-04T12:56:27.797Z,36.761475
2023-04-04T12:57:36.443Z,37.731934
2023-04-04T12:58:47.261Z,39.508057
2023-04-04T12:59:55.746Z,41.259766
2023-04-04T13:01:05.446Z,42.077637
2023-04-04T13:02:15.106Z,40.9729
2023-04-04T13:03:24.767Z,40.612793
2023-04-04T13:04:32.453Z,39.532471
2023-04-04T13:05:42.430Z,38.275146
2023-04-04T13:06:50.742Z,38.05542
2023-04-04T13:07:59.396Z,37.884521
2023-04-04T13:09:07.047Z,40.124512
2023-04-04T13:10:16.726Z,39.837646